sensor_id;sensor_type;location;lat;lon;timestamp;P1;durP1;ratioP1;P2;durP2;ratioP2
56927;SDS011;60850;52.502;13.426;2023-04-25T00:01:54;4.15;;;2.40;;
56927;SDS011;60850;52.502;13.426;2023-04-25T00:04:22;4.63;;;2.58;;
56927;SDS011;60850;52.502;13.426;2023-04-25T00:06:48;5.03;;;2.53;;
56927;SDS011;60850;52.502;13.426;2023-04-25T00:09:15;4.93;;;2.28;;
56927;SDS011;60850;52.502;13.426;2023-04-25T00:11:43;4.75;;;2.00;;
56927;SDS011;60850;52.502;13.426;2023-04-25T00:14:10;2.58;;;2.13;;
56927;SDS011;60850;52.502;13.426;2023-04-25T00:16:37;3.92;;;1.98;;
56927;SDS011;60850;52.502;13.426;2023-04-25T00:19:06;5.05;;;2.10;;
56927;SDS011;60850;52.502;13.426;2023-04-25T00:21:34;4.22;;;2.15;;
56927;SDS011;60850;52.502;13.426;2023-04-25T00:24:03;5.88;;;2.17;;
56927;SDS011;60850;52.502;13.426;2023-04-25T00:26:30;3.75;;;1.77;;
56927;SDS011;60850;52.502;13.426;2023-04-25T00:28:58;2.92;;;2.17;;
56927;SDS011;60850;52.502;13.426;2023-04-25T00:31:25;2.28;;;1.73;;
56927;SDS011;60850;52.502;13.426;2023-04-25T00:33:52;5.55;;;1.85;;
56927;SDS011;60850;52.502;13.426;2023-04-25T00:36:19;2.42;;;1.67;;
56927;SDS011;60850;52.502;13.426;2023-04-25T00:38:46;4.53;;;2.03;;
56927;SDS011;60850;52.502;13.426;2023-04-25T00:41:13;3.17;;;1.60;;
56927;SDS011;60850;52.502;13.426;2023-04-25T00:43:40;4.22;;;1.73;;
56927;SDS011;60850;52.502;13.426;2023-04-25T00:46:09;4.07;;;1.88;;
56927;SDS011;60850;52.502;13.426;2023-04-25T00:48:36;5.00;;;2.10;;
56927;SDS011;60850;52.502;13.426;2023-04-25T00:51:03;3.25;;;1.67;;
56927;SDS011;60850;52.502;13.426;2023-04-25T00:53:30;4.35;;;2.00;;
56927;SDS011;60850;52.502;13.426;2023-04-25T00:55:58;5.30;;;2.05;;
56927;SDS011;60850;52.502;13.426;2023-04-25T00:58:25;3.88;;;1.70;;
56927;SDS011;60850;52.502;13.426;2023-04-25T01:00:52;4.47;;;1.80;;
56927;SDS011;60850;52.502;13.426;2023-04-25T01:03:20;6.60;;;2.15;;
56927;SDS011;60850;52.502;13.426;2023-04-25T02:02:15;7.20;;;2.30;;
56927;SDS011;60850;52.502;13.426;2023-04-25T02:04:42;7.25;;;2.22;;
56927;SDS011;60850;52.502;13.426;2023-04-25T02:07:09;7.88;;;2.22;;
56927;SDS011;60850;52.502;13.426;2023-04-25T02:09:36;4.60;;;2.08;;
56927;SDS011;60850;52.502;13.426;2023-04-25T02:12:03;6.25;;;2.25;;
56927;SDS011;60850;52.502;13.426;2023-04-25T02:14:30;4.20;;;1.83;;
56927;SDS011;60850;52.502;13.426;2023-04-25T02:16:57;8.10;;;2.65;;
56927;SDS011;60850;52.502;13.426;2023-04-25T02:19:26;7.68;;;2.90;;
56927;SDS011;60850;52.502;13.426;2023-04-25T02:21:52;5.15;;;2.33;;
56927;SDS011;60850;52.502;13.426;2023-04-25T02:24:20;5.25;;;2.70;;
56927;SDS011;60850;52.502;13.426;2023-04-25T02:26:47;8.00;;;2.65;;
56927;SDS011;60850;52.502;13.426;2023-04-25T02:29:15;6.13;;;2.47;;
56927;SDS011;60850;52.502;13.426;2023-04-25T02:31:42;5.15;;;2.47;;
56927;SDS011;60850;52.502;13.426;2023-04-25T02:34:09;6.47;;;2.95;;
56927;SDS011;60850;52.502;13.426;2023-04-25T02:36:37;9.45;;;2.78;;
56927;SDS011;60850;52.502;13.426;2023-04-25T02:39:04;5.75;;;3.13;;
56927;SDS011;60850;52.502;13.426;2023-04-25T02:41:31;5.38;;;2.47;;
56927;SDS011;60850;52.502;13.426;2023-04-25T02:43:58;6.68;;;3.08;;
56927;SDS011;60850;52.502;13.426;2023-04-25T02:46:25;5.50;;;2.33;;
56927;SDS011;60850;52.502;13.426;2023-04-25T02:48:52;5.25;;;2.72;;
56927;SDS011;60850;52.502;13.426;2023-04-25T02:51:18;6.53;;;2.28;;
56927;SDS011;60850;52.502;13.426;2023-04-25T02:53:47;8.05;;;3.05;;
56927;SDS011;60850;52.502;13.426;2023-04-25T02:56:13;7.88;;;2.92;;
56927;SDS011;60850;52.502;13.426;2023-04-25T02:58:41;4.38;;;2.63;;
56927;SDS011;60850;52.502;13.426;2023-04-25T03:01:07;6.18;;;3.63;;
56927;SDS011;60850;52.502;13.426;2023-04-25T03:03:34;6.47;;;2.67;;
56927;SDS011;60850;52.502;13.426;2023-04-25T03:06:01;6.32;;;3.97;;
56927;SDS011;60850;52.502;13.426;2023-04-25T03:08:28;4.78;;;2.58;;
56927;SDS011;60850;52.502;13.426;2023-04-25T03:10:59;5.68;;;2.80;;
56927;SDS011;60850;52.502;13.426;2023-04-25T03:13:26;9.40;;;3.00;;
56927;SDS011;60850;52.502;13.426;2023-04-25T03:15:55;6.90;;;3.03;;
56927;SDS011;60850;52.502;13.426;2023-04-25T03:18:22;7.25;;;3.17;;
56927;SDS011;60850;52.502;13.426;2023-04-25T03:20:48;7.78;;;3.03;;
56927;SDS011;60850;52.502;13.426;2023-04-25T03:23:16;6.63;;;3.20;;
56927;SDS011;60850;52.502;13.426;2023-04-25T03:25:42;7.10;;;3.50;;
56927;SDS011;60850;52.502;13.426;2023-04-25T03:28:11;7.78;;;3.03;;
56927;SDS011;60850;52.502;13.426;2023-04-25T03:30:37;5.93;;;2.92;;
56927;SDS011;60850;52.502;13.426;2023-04-25T03:33:04;9.43;;;3.25;;
56927;SDS011;60850;52.502;13.426;2023-04-25T03:35:31;7.30;;;3.70;;
56927;SDS011;60850;52.502;13.426;2023-04-25T03:37:58;6.78;;;2.92;;
56927;SDS011;60850;52.502;13.426;2023-04-25T03:40:25;7.80;;;3.55;;
56927;SDS011;60850;52.502;13.426;2023-04-25T03:42:52;5.70;;;3.00;;
56927;SDS011;60850;52.502;13.426;2023-04-25T03:45:20;5.88;;;3.28;;
56927;SDS011;60850;52.502;13.426;2023-04-25T03:47:47;7.65;;;3.65;;
56927;SDS011;60850;52.502;13.426;2023-04-25T03:50:15;6.97;;;3.35;;
56927;SDS011;60850;52.502;13.426;2023-04-25T03:52:42;5.85;;;3.22;;
56927;SDS011;60850;52.502;13.426;2023-04-25T03:55:09;6.60;;;3.03;;
56927;SDS011;60850;52.502;13.426;2023-04-25T03:57:36;7.90;;;3.45;;
56927;SDS011;60850;52.502;13.426;2023-04-25T04:00:03;7.32;;;3.03;;
56927;SDS011;60850;52.502;13.426;2023-04-25T04:02:33;6.05;;;3.30;;
56927;SDS011;60850;52.502;13.426;2023-04-25T04:05:01;5.13;;;3.13;;
56927;SDS011;60850;52.502;13.426;2023-04-25T04:07:28;6.13;;;3.00;;
56927;SDS011;60850;52.502;13.426;2023-04-25T04:09:57;6.82;;;3.35;;
56927;SDS011;60850;52.502;13.426;2023-04-25T04:12:24;8.35;;;3.22;;
56927;SDS011;60850;52.502;13.426;2023-04-25T04:14:51;7.78;;;3.08;;
56927;SDS011;60850;52.502;13.426;2023-04-25T04:17:18;7.63;;;3.42;;
56927;SDS011;60850;52.502;13.426;2023-04-25T04:19:46;6.82;;;3.10;;
56927;SDS011;60850;52.502;13.426;2023-04-25T04:22:13;6.65;;;3.03;;
56927;SDS011;60850;52.502;13.426;2023-04-25T04:24:40;6.22;;;2.92;;
56927;SDS011;60850;52.502;13.426;2023-04-25T04:27:09;7.22;;;3.22;;
56927;SDS011;60850;52.502;13.426;2023-04-25T04:29:37;6.95;;;2.75;;
56927;SDS011;60850;52.502;13.426;2023-04-25T04:32:04;7.70;;;3.17;;
56927;SDS011;60850;52.502;13.426;2023-04-25T04:34:33;6.43;;;2.72;;
56927;SDS011;60850;52.502;13.426;2023-04-25T04:37:02;9.00;;;3.05;;
56927;SDS011;60850;52.502;13.426;2023-04-25T04:39:29;5.85;;;2.85;;
56927;SDS011;60850;52.502;13.426;2023-04-25T04:41:56;7.78;;;3.60;;
56927;SDS011;60850;52.502;13.426;2023-04-25T04:44:22;9.70;;;3.38;;
56927;SDS011;60850;52.502;13.426;2023-04-25T04:46:50;4.43;;;2.58;;
56927;SDS011;60850;52.502;13.426;2023-04-25T04:49:17;6.05;;;3.10;;
56927;SDS011;60850;52.502;13.426;2023-04-25T04:51:44;7.82;;;3.10;;
56927;SDS011;60850;52.502;13.426;2023-04-25T04:54:13;10.55;;;2.88;;
56927;SDS011;60850;52.502;13.426;2023-04-25T04:56:40;6.50;;;3.30;;
56927;SDS011;60850;52.502;13.426;2023-04-25T04:59:07;9.45;;;3.15;;
56927;SDS011;60850;52.502;13.426;2023-04-25T05:01:34;6.10;;;2.47;;
56927;SDS011;60850;52.502;13.426;2023-04-25T05:04:01;7.43;;;2.85;;
56927;SDS011;60850;52.502;13.426;2023-04-25T05:06:29;9.93;;;3.75;;
56927;SDS011;60850;52.502;13.426;2023-04-25T05:08:56;7.47;;;2.80;;
56927;SDS011;60850;52.502;13.426;2023-04-25T05:11:25;5.93;;;2.60;;
56927;SDS011;60850;52.502;13.426;2023-04-25T05:13:52;4.70;;;2.90;;
56927;SDS011;60850;52.502;13.426;2023-04-25T05:16:19;5.45;;;2.88;;
56927;SDS011;60850;52.502;13.426;2023-04-25T05:18:47;7.20;;;2.75;;
56927;SDS011;60850;52.502;13.426;2023-04-25T05:21:14;9.02;;;2.90;;
56927;SDS011;60850;52.502;13.426;2023-04-25T05:23:41;5.88;;;2.75;;
56927;SDS011;60850;52.502;13.426;2023-04-25T05:26:08;6.13;;;3.28;;
56927;SDS011;60850;52.502;13.426;2023-04-25T05:28:40;5.38;;;3.05;;
56927;SDS011;60850;52.502;13.426;2023-04-25T05:31:07;8.70;;;3.40;;
56927;SDS011;60850;52.502;13.426;2023-04-25T05:33:36;5.82;;;3.20;;
56927;SDS011;60850;52.502;13.426;2023-04-25T05:36:03;9.55;;;3.55;;
56927;SDS011;60850;52.502;13.426;2023-04-25T05:38:30;7.28;;;2.83;;
56927;SDS011;60850;52.502;13.426;2023-04-25T05:40:57;5.55;;;2.60;;
56927;SDS011;60850;52.502;13.426;2023-04-25T05:43:24;8.65;;;2.80;;
56927;SDS011;60850;52.502;13.426;2023-04-25T05:45:52;4.25;;;2.85;;
56927;SDS011;60850;52.502;13.426;2023-04-25T05:48:19;6.18;;;2.88;;
56927;SDS011;60850;52.502;13.426;2023-04-25T05:50:46;7.50;;;3.40;;
56927;SDS011;60850;52.502;13.426;2023-04-25T05:53:13;6.03;;;3.20;;
56927;SDS011;60850;52.502;13.426;2023-04-25T05:55:40;14.27;;;3.50;;
56927;SDS011;60850;52.502;13.426;2023-04-25T05:58:07;8.85;;;3.45;;
56927;SDS011;60850;52.502;13.426;2023-04-25T06:00:34;12.63;;;3.65;;
56927;SDS011;60850;52.502;13.426;2023-04-25T06:03:02;6.05;;;3.50;;
56927;SDS011;60850;52.502;13.426;2023-04-25T06:05:30;6.50;;;3.47;;
56927;SDS011;60850;52.502;13.426;2023-04-25T06:07:57;9.55;;;3.05;;
56927;SDS011;60850;52.502;13.426;2023-04-25T06:10:24;7.75;;;3.72;;
56927;SDS011;60850;52.502;13.426;2023-04-25T06:12:50;8.55;;;4.07;;
56927;SDS011;60850;52.502;13.426;2023-04-25T06:15:17;11.65;;;4.32;;
56927;SDS011;60850;52.502;13.426;2023-04-25T06:17:44;6.35;;;3.67;;
56927;SDS011;60850;52.502;13.426;2023-04-25T06:20:13;9.48;;;3.83;;
56927;SDS011;60850;52.502;13.426;2023-04-25T06:22:39;7.57;;;3.63;;
56927;SDS011;60850;52.502;13.426;2023-04-25T06:25:07;7.78;;;3.83;;
56927;SDS011;60850;52.502;13.426;2023-04-25T06:27:34;10.00;;;3.58;;
56927;SDS011;60850;52.502;13.426;2023-04-25T06:30:01;8.45;;;3.97;;
56927;SDS011;60850;52.502;13.426;2023-04-25T06:32:29;8.98;;;3.50;;
56927;SDS011;60850;52.502;13.426;2023-04-25T06:34:56;10.70;;;4.28;;
56927;SDS011;60850;52.502;13.426;2023-04-25T06:37:24;7.55;;;3.50;;
56927;SDS011;60850;52.502;13.426;2023-04-25T06:39:51;7.28;;;4.20;;
56927;SDS011;60850;52.502;13.426;2023-04-25T06:42:18;7.78;;;3.80;;
56927;SDS011;60850;52.502;13.426;2023-04-25T06:44:45;8.25;;;4.13;;
56927;SDS011;60850;52.502;13.426;2023-04-25T06:47:13;7.95;;;3.58;;
56927;SDS011;60850;52.502;13.426;2023-04-25T06:49:40;9.32;;;3.63;;
56927;SDS011;60850;52.502;13.426;2023-04-25T06:52:07;9.90;;;3.83;;
56927;SDS011;60850;52.502;13.426;2023-04-25T06:54:35;10.80;;;3.63;;
56927;SDS011;60850;52.502;13.426;2023-04-25T06:57:02;10.27;;;3.72;;
56927;SDS011;60850;52.502;13.426;2023-04-25T06:59:29;9.40;;;4.53;;
56927;SDS011;60850;52.502;13.426;2023-04-25T07:01:56;8.25;;;3.47;;
56927;SDS011;60850;52.502;13.426;2023-04-25T07:04:23;9.45;;;3.75;;
56927;SDS011;60850;52.502;13.426;2023-04-25T07:06:50;8.65;;;3.28;;
56927;SDS011;60850;52.502;13.426;2023-04-25T07:09:17;9.25;;;3.10;;
56927;SDS011;60850;52.502;13.426;2023-04-25T07:11:45;6.47;;;3.30;;
56927;SDS011;60850;52.502;13.426;2023-04-25T07:14:12;8.85;;;3.38;;
56927;SDS011;60850;52.502;13.426;2023-04-25T07:16:39;7.90;;;2.95;;
56927;SDS011;60850;52.502;13.426;2023-04-25T07:19:06;12.48;;;3.65;;
56927;SDS011;60850;52.502;13.426;2023-04-25T07:21:33;9.73;;;3.22;;
56927;SDS011;60850;52.502;13.426;2023-04-25T07:24:01;6.70;;;2.92;;
56927;SDS011;60850;52.502;13.426;2023-04-25T07:26:28;6.82;;;3.13;;
56927;SDS011;60850;52.502;13.426;2023-04-25T07:28:57;6.93;;;3.30;;
56927;SDS011;60850;52.502;13.426;2023-04-25T07:31:23;8.20;;;3.95;;
56927;SDS011;60850;52.502;13.426;2023-04-25T07:33:51;10.85;;;3.33;;
56927;SDS011;60850;52.502;13.426;2023-04-25T07:36:18;7.63;;;3.17;;
56927;SDS011;60850;52.502;13.426;2023-04-25T07:38:46;6.10;;;3.10;;
56927;SDS011;60850;52.502;13.426;2023-04-25T07:41:13;6.07;;;2.75;;
56927;SDS011;60850;52.502;13.426;2023-04-25T07:43:40;9.68;;;3.20;;
56927;SDS011;60850;52.502;13.426;2023-04-25T07:46:08;8.43;;;3.17;;
56927;SDS011;60850;52.502;13.426;2023-04-25T07:48:35;7.47;;;2.90;;
56927;SDS011;60850;52.502;13.426;2023-04-25T07:51:02;8.23;;;3.20;;
56927;SDS011;60850;52.502;13.426;2023-04-25T07:53:32;6.72;;;3.20;;
56927;SDS011;60850;52.502;13.426;2023-04-25T07:56:01;8.60;;;3.45;;
56927;SDS011;60850;52.502;13.426;2023-04-25T07:58:27;6.20;;;3.10;;
56927;SDS011;60850;52.502;13.426;2023-04-25T08:00:55;15.77;;;3.70;;
56927;SDS011;60850;52.502;13.426;2023-04-25T08:03:23;10.07;;;2.60;;
56927;SDS011;60850;52.502;13.426;2023-04-25T08:05:50;8.73;;;2.92;;
56927;SDS011;60850;52.502;13.426;2023-04-25T08:08:16;13.13;;;2.83;;
56927;SDS011;60850;52.502;13.426;2023-04-25T08:10:43;16.25;;;4.60;;
56927;SDS011;60850;52.502;13.426;2023-04-25T08:13:10;16.67;;;4.22;;
56927;SDS011;60850;52.502;13.426;2023-04-25T08:15:37;15.50;;;3.75;;
56927;SDS011;60850;52.502;13.426;2023-04-25T08:18:04;11.50;;;2.90;;
56927;SDS011;60850;52.502;13.426;2023-04-25T08:20:33;8.18;;;2.20;;
56927;SDS011;60850;52.502;13.426;2023-04-25T08:22:59;11.45;;;3.05;;
56927;SDS011;60850;52.502;13.426;2023-04-25T08:25:27;12.75;;;2.72;;
56927;SDS011;60850;52.502;13.426;2023-04-25T08:27:53;10.82;;;3.20;;
56927;SDS011;60850;52.502;13.426;2023-04-25T08:30:21;12.10;;;2.80;;
56927;SDS011;60850;52.502;13.426;2023-04-25T08:32:48;10.18;;;2.60;;
56927;SDS011;60850;52.502;13.426;2023-04-25T08:35:14;18.30;;;3.47;;
56927;SDS011;60850;52.502;13.426;2023-04-25T08:37:44;18.42;;;3.53;;
56927;SDS011;60850;52.502;13.426;2023-04-25T08:40:11;7.18;;;2.20;;
56927;SDS011;60850;52.502;13.426;2023-04-25T08:42:41;15.02;;;2.67;;
56927;SDS011;60850;52.502;13.426;2023-04-25T08:45:08;12.50;;;2.35;;
56927;SDS011;60850;52.502;13.426;2023-04-25T08:47:36;12.15;;;3.22;;
56927;SDS011;60850;52.502;13.426;2023-04-25T08:50:05;11.88;;;2.80;;
56927;SDS011;60850;52.502;13.426;2023-04-25T08:52:35;16.20;;;3.38;;
56927;SDS011;60850;52.502;13.426;2023-04-25T08:55:05;8.65;;;2.00;;
56927;SDS011;60850;52.502;13.426;2023-04-25T08:57:36;7.97;;;2.83;;
56927;SDS011;60850;52.502;13.426;2023-04-25T09:00:03;13.00;;;2.47;;
56927;SDS011;60850;52.502;13.426;2023-04-25T09:02:31;8.65;;;1.98;;
56927;SDS011;60850;52.502;13.426;2023-04-25T09:04:59;8.73;;;2.30;;
56927;SDS011;60850;52.502;13.426;2023-04-25T09:07:26;6.13;;;2.42;;
56927;SDS011;60850;52.502;13.426;2023-04-25T09:09:53;8.30;;;2.28;;
56927;SDS011;60850;52.502;13.426;2023-04-25T09:12:22;8.55;;;2.20;;
56927;SDS011;60850;52.502;13.426;2023-04-25T09:15:00;8.43;;;2.22;;
56927;SDS011;60850;52.502;13.426;2023-04-25T09:17:29;7.60;;;2.13;;
56927;SDS011;60850;52.502;13.426;2023-04-25T09:20:04;11.07;;;1.98;;
56927;SDS011;60850;52.502;13.426;2023-04-25T09:22:32;6.97;;;1.67;;
56927;SDS011;60850;52.502;13.426;2023-04-25T09:24:59;6.13;;;1.88;;
56927;SDS011;60850;52.502;13.426;2023-04-25T09:27:31;10.88;;;2.33;;
56927;SDS011;60850;52.502;13.426;2023-04-25T09:29:58;9.10;;;1.98;;
56927;SDS011;60850;52.502;13.426;2023-04-25T09:32:26;8.85;;;1.70;;
56927;SDS011;60850;52.502;13.426;2023-04-25T09:34:53;10.93;;;2.10;;
56927;SDS011;60850;52.502;13.426;2023-04-25T09:37:22;7.18;;;2.05;;
56927;SDS011;60850;52.502;13.426;2023-04-25T09:39:50;7.93;;;2.00;;
56927;SDS011;60850;52.502;13.426;2023-04-25T09:42:21;6.80;;;2.00;;
56927;SDS011;60850;52.502;13.426;2023-04-25T09:44:51;5.63;;;1.70;;
56927;SDS011;60850;52.502;13.426;2023-04-25T09:47:19;8.80;;;2.30;;
56927;SDS011;60850;52.502;13.426;2023-04-25T09:49:48;7.57;;;1.80;;
56927;SDS011;60850;52.502;13.426;2023-04-25T09:52:16;6.57;;;1.65;;
56927;SDS011;60850;52.502;13.426;2023-04-25T09:54:44;7.88;;;1.75;;
56927;SDS011;60850;52.502;13.426;2023-04-25T09:57:11;6.85;;;1.80;;
56927;SDS011;60850;52.502;13.426;2023-04-25T09:59:42;5.25;;;1.90;;
56927;SDS011;60850;52.502;13.426;2023-04-25T10:02:14;4.80;;;1.38;;
56927;SDS011;60850;52.502;13.426;2023-04-25T10:04:42;5.85;;;1.75;;
56927;SDS011;60850;52.502;13.426;2023-04-25T10:07:14;8.93;;;1.85;;
56927;SDS011;60850;52.502;13.426;2023-04-25T10:09:41;9.63;;;2.42;;
56927;SDS011;60850;52.502;13.426;2023-04-25T10:12:11;7.05;;;2.30;;
56927;SDS011;60850;52.502;13.426;2023-04-25T10:14:38;8.02;;;2.00;;
56927;SDS011;60850;52.502;13.426;2023-04-25T10:17:07;18.85;;;2.75;;
56927;SDS011;60850;52.502;13.426;2023-04-25T10:19:37;11.98;;;3.00;;
56927;SDS011;60850;52.502;13.426;2023-04-25T10:22:07;15.32;;;3.20;;
56927;SDS011;60850;52.502;13.426;2023-04-25T10:24:38;9.70;;;2.67;;
56927;SDS011;60850;52.502;13.426;2023-04-25T10:27:06;10.48;;;2.25;;
56927;SDS011;60850;52.502;13.426;2023-04-25T10:29:33;8.40;;;2.20;;
56927;SDS011;60850;52.502;13.426;2023-04-25T10:32:01;8.18;;;1.73;;
56927;SDS011;60850;52.502;13.426;2023-04-25T10:34:40;9.35;;;2.08;;
56927;SDS011;60850;52.502;13.426;2023-04-25T10:37:10;9.38;;;2.00;;
56927;SDS011;60850;52.502;13.426;2023-04-25T10:39:38;8.38;;;1.83;;
56927;SDS011;60850;52.502;13.426;2023-04-25T10:42:06;7.28;;;2.15;;
56927;SDS011;60850;52.502;13.426;2023-04-25T10:44:34;6.22;;;1.70;;
56927;SDS011;60850;52.502;13.426;2023-04-25T10:47:03;6.45;;;1.65;;
56927;SDS011;60850;52.502;13.426;2023-04-25T10:49:34;5.05;;;1.67;;
56927;SDS011;60850;52.502;13.426;2023-04-25T10:52:17;6.53;;;1.70;;
56927;SDS011;60850;52.502;13.426;2023-04-25T10:54:51;5.45;;;1.55;;
56927;SDS011;60850;52.502;13.426;2023-04-25T10:57:26;5.70;;;1.70;;
56927;SDS011;60850;52.502;13.426;2023-04-25T10:59:55;7.53;;;2.00;;
56927;SDS011;60850;52.502;13.426;2023-04-25T11:02:26;9.70;;;1.90;;
56927;SDS011;60850;52.502;13.426;2023-04-25T11:04:53;9.07;;;2.13;;
56927;SDS011;60850;52.502;13.426;2023-04-25T11:07:26;7.70;;;1.92;;
56927;SDS011;60850;52.502;13.426;2023-04-25T11:10:00;9.20;;;2.05;;
56927;SDS011;60850;52.502;13.426;2023-04-25T11:12:29;7.75;;;1.90;;
56927;SDS011;60850;52.502;13.426;2023-04-25T11:14:58;7.05;;;1.73;;
56927;SDS011;60850;52.502;13.426;2023-04-25T11:17:26;4.68;;;1.70;;
56927;SDS011;60850;52.502;13.426;2023-04-25T11:19:54;9.73;;;1.80;;
56927;SDS011;60850;52.502;13.426;2023-04-25T11:22:22;8.27;;;1.88;;
56927;SDS011;60850;52.502;13.426;2023-04-25T11:24:50;9.07;;;2.53;;
56927;SDS011;60850;52.502;13.426;2023-04-25T11:27:17;10.80;;;1.95;;
56927;SDS011;60850;52.502;13.426;2023-04-25T11:29:44;8.15;;;1.70;;
56927;SDS011;60850;52.502;13.426;2023-04-25T11:32:14;5.55;;;1.67;;
56927;SDS011;60850;52.502;13.426;2023-04-25T11:34:42;7.57;;;1.92;;
56927;SDS011;60850;52.502;13.426;2023-04-25T11:37:10;5.15;;;1.80;;
56927;SDS011;60850;52.502;13.426;2023-04-25T11:39:43;3.90;;;1.48;;
56927;SDS011;60850;52.502;13.426;2023-04-25T11:42:12;4.50;;;1.38;;
56927;SDS011;60850;52.502;13.426;2023-04-25T11:44:39;10.63;;;2.05;;
56927;SDS011;60850;52.502;13.426;2023-04-25T11:47:06;8.25;;;2.05;;
56927;SDS011;60850;52.502;13.426;2023-04-25T11:49:33;5.68;;;1.50;;
56927;SDS011;60850;52.502;13.426;2023-04-25T11:52:01;7.15;;;1.60;;
56927;SDS011;60850;52.502;13.426;2023-04-25T11:54:27;9.88;;;1.55;;
56927;SDS011;60850;52.502;13.426;2023-04-25T11:56:56;4.22;;;1.33;;
56927;SDS011;60850;52.502;13.426;2023-04-25T11:59:24;7.00;;;1.30;;
56927;SDS011;60850;52.502;13.426;2023-04-25T12:01:52;4.88;;;1.30;;
56927;SDS011;60850;52.502;13.426;2023-04-25T12:04:19;9.27;;;1.65;;
56927;SDS011;60850;52.502;13.426;2023-04-25T12:06:48;6.03;;;1.30;;
56927;SDS011;60850;52.502;13.426;2023-04-25T12:09:16;5.75;;;1.17;;
56927;SDS011;60850;52.502;13.426;2023-04-25T12:11:45;7.35;;;1.75;;
56927;SDS011;60850;52.502;13.426;2023-04-25T12:14:21;9.82;;;1.95;;
56927;SDS011;60850;52.502;13.426;2023-04-25T12:16:50;7.57;;;1.70;;
56927;SDS011;60850;52.502;13.426;2023-04-25T12:19:18;4.65;;;1.50;;
56927;SDS011;60850;52.502;13.426;2023-04-25T12:21:47;9.13;;;1.77;;
56927;SDS011;60850;52.502;13.426;2023-04-25T12:24:16;6.88;;;1.70;;
56927;SDS011;60850;52.502;13.426;2023-04-25T12:26:48;6.53;;;1.33;;
56927;SDS011;60850;52.502;13.426;2023-04-25T12:29:17;9.23;;;1.95;;
56927;SDS011;60850;52.502;13.426;2023-04-25T12:31:47;6.78;;;2.00;;
56927;SDS011;60850;52.502;13.426;2023-04-25T12:34:14;6.43;;;1.33;;
56927;SDS011;60850;52.502;13.426;2023-04-25T12:36:42;9.07;;;1.67;;
56927;SDS011;60850;52.502;13.426;2023-04-25T12:39:08;5.68;;;1.30;;
56927;SDS011;60850;52.502;13.426;2023-04-25T12:41:41;8.57;;;1.90;;
56927;SDS011;60850;52.502;13.426;2023-04-25T12:44:08;15.20;;;2.05;;
56927;SDS011;60850;52.502;13.426;2023-04-25T12:46:35;8.85;;;1.48;;
56927;SDS011;60850;52.502;13.426;2023-04-25T12:49:03;8.32;;;1.60;;
56927;SDS011;60850;52.502;13.426;2023-04-25T12:51:31;6.22;;;1.38;;
56927;SDS011;60850;52.502;13.426;2023-04-25T12:53:58;4.45;;;1.58;;
56927;SDS011;60850;52.502;13.426;2023-04-25T12:56:25;5.13;;;1.70;;
56927;SDS011;60850;52.502;13.426;2023-04-25T12:58:53;6.40;;;1.38;;
56927;SDS011;60850;52.502;13.426;2023-04-25T13:01:20;4.05;;;1.30;;
56927;SDS011;60850;52.502;13.426;2023-04-25T13:03:47;6.40;;;1.52;;
56927;SDS011;60850;52.502;13.426;2023-04-25T13:06:16;4.35;;;1.52;;
56927;SDS011;60850;52.502;13.426;2023-04-25T13:08:44;5.90;;;1.40;;
56927;SDS011;60850;52.502;13.426;2023-04-25T13:11:11;6.90;;;1.30;;
56927;SDS011;60850;52.502;13.426;2023-04-25T13:13:40;3.85;;;1.45;;
56927;SDS011;60850;52.502;13.426;2023-04-25T13:16:07;4.68;;;1.25;;
56927;SDS011;60850;52.502;13.426;2023-04-25T13:18:33;4.57;;;1.40;;
56927;SDS011;60850;52.502;13.426;2023-04-25T13:21:01;3.15;;;1.02;;
56927;SDS011;60850;52.502;13.426;2023-04-25T13:23:29;3.22;;;1.02;;
56927;SDS011;60850;52.502;13.426;2023-04-25T13:25:57;8.18;;;1.30;;
56927;SDS011;60850;52.502;13.426;2023-04-25T13:28:25;4.03;;;1.02;;
56927;SDS011;60850;52.502;13.426;2023-04-25T13:30:53;4.97;;;1.27;;
56927;SDS011;60850;52.502;13.426;2023-04-25T13:33:20;3.15;;;0.95;;
56927;SDS011;60850;52.502;13.426;2023-04-25T13:35:48;6.35;;;1.63;;
56927;SDS011;60850;52.502;13.426;2023-04-25T13:38:19;4.85;;;1.30;;
56927;SDS011;60850;52.502;13.426;2023-04-25T13:40:49;4.07;;;0.77;;
56927;SDS011;60850;52.502;13.426;2023-04-25T13:43:18;3.92;;;1.30;;
56927;SDS011;60850;52.502;13.426;2023-04-25T13:45:45;6.28;;;1.35;;
56927;SDS011;60850;52.502;13.426;2023-04-25T13:48:12;4.22;;;1.10;;
56927;SDS011;60850;52.502;13.426;2023-04-25T13:50:39;12.05;;;1.90;;
56927;SDS011;60850;52.502;13.426;2023-04-25T13:53:06;5.18;;;1.25;;
56927;SDS011;60850;52.502;13.426;2023-04-25T13:55:34;5.32;;;1.30;;
56927;SDS011;60850;52.502;13.426;2023-04-25T13:58:03;5.78;;;1.55;;
56927;SDS011;60850;52.502;13.426;2023-04-25T14:00:33;6.32;;;1.80;;
56927;SDS011;60850;52.502;13.426;2023-04-25T14:03:03;11.75;;;2.78;;
56927;SDS011;60850;52.502;13.426;2023-04-25T14:05:33;7.20;;;1.67;;
56927;SDS011;60850;52.502;13.426;2023-04-25T14:08:03;5.97;;;1.77;;
56927;SDS011;60850;52.502;13.426;2023-04-25T14:10:34;4.82;;;1.48;;
56927;SDS011;60850;52.502;13.426;2023-04-25T14:13:01;6.70;;;2.13;;
56927;SDS011;60850;52.502;13.426;2023-04-25T14:15:31;6.88;;;1.60;;
56927;SDS011;60850;52.502;13.426;2023-04-25T14:17:58;6.20;;;1.58;;
56927;SDS011;60850;52.502;13.426;2023-04-25T14:20:25;4.85;;;1.63;;
56927;SDS011;60850;52.502;13.426;2023-04-25T14:22:52;7.43;;;1.60;;
56927;SDS011;60850;52.502;13.426;2023-04-25T14:25:21;3.88;;;1.23;;
56927;SDS011;60850;52.502;13.426;2023-04-25T14:27:48;5.68;;;1.35;;
56927;SDS011;60850;52.502;13.426;2023-04-25T14:30:16;6.70;;;1.60;;
56927;SDS011;60850;52.502;13.426;2023-04-25T14:32:54;5.28;;;1.38;;
56927;SDS011;60850;52.502;13.426;2023-04-25T14:35:21;5.78;;;2.03;;
56927;SDS011;60850;52.502;13.426;2023-04-25T14:37:48;6.57;;;1.30;;
56927;SDS011;60850;52.502;13.426;2023-04-25T14:40:15;4.68;;;1.55;;
56927;SDS011;60850;52.502;13.426;2023-04-25T14:42:42;4.82;;;1.23;;
56927;SDS011;60850;52.502;13.426;2023-04-25T14:45:10;3.78;;;1.25;;
56927;SDS011;60850;52.502;13.426;2023-04-25T14:47:37;3.40;;;1.23;;
56927;SDS011;60850;52.502;13.426;2023-04-25T14:50:06;6.78;;;1.35;;
56927;SDS011;60850;52.502;13.426;2023-04-25T14:52:33;4.72;;;1.40;;
56927;SDS011;60850;52.502;13.426;2023-04-25T14:55:01;4.65;;;1.80;;
56927;SDS011;60850;52.502;13.426;2023-04-25T14:57:30;3.47;;;1.30;;
56927;SDS011;60850;52.502;13.426;2023-04-25T14:59:57;4.65;;;1.80;;
56927;SDS011;60850;52.502;13.426;2023-04-25T15:02:24;5.75;;;1.52;;
56927;SDS011;60850;52.502;13.426;2023-04-25T15:04:52;5.82;;;1.70;;
56927;SDS011;60850;52.502;13.426;2023-04-25T15:07:20;5.53;;;1.20;;
56927;SDS011;60850;52.502;13.426;2023-04-25T15:09:47;3.03;;;1.42;;
56927;SDS011;60850;52.502;13.426;2023-04-25T15:12:14;8.68;;;1.73;;
56927;SDS011;60850;52.502;13.426;2023-04-25T15:14:41;7.63;;;1.85;;
56927;SDS011;60850;52.502;13.426;2023-04-25T15:17:08;4.72;;;1.30;;
56927;SDS011;60850;52.502;13.426;2023-04-25T15:19:35;7.95;;;1.23;;
56927;SDS011;60850;52.502;13.426;2023-04-25T15:22:01;5.05;;;1.45;;
56927;SDS011;60850;52.502;13.426;2023-04-25T15:24:30;6.93;;;1.40;;
56927;SDS011;60850;52.502;13.426;2023-04-25T15:26:57;2.03;;;1.17;;
56927;SDS011;60850;52.502;13.426;2023-04-25T15:29:24;3.33;;;0.95;;
56927;SDS011;60850;52.502;13.426;2023-04-25T15:31:52;5.97;;;1.23;;
56927;SDS011;60850;52.502;13.426;2023-04-25T15:34:19;3.53;;;1.33;;